Time;durP1;ratioP1;P1;durP2;ratioP2;P2;SDS_P1;SDS_P2;PMS_P1;PMS_P2;Temp;Humidity;BMP_temperature;BMP_pressure;BME280_temperature;BME280_humidity;BME280_pressure;Samples;Min_cycle;Max_cycle;Signal;HPM_P1;HPM_P2
2023/10/27 00:00:43;;;;;;;5.00;4.23;;;13.00;95.10;;;14.71;68.02;99366.94;3080662;46;20435;-65
2023/10/27 00:03:12;;;;;;;6.90;4.17;;;13.00;95.10;;;14.74;68.13;99368.31;3081005;46;20447;-66
2023/10/27 00:05:40;;;;;;;4.37;4.00;;;13.00;95.20;;;14.76;68.30;99371.56;3081106;46;21066;-68
2023/10/27 00:08:09;;;;;;;4.47;4.07;;;13.00;95.20;;;14.79;68.46;99371.06;3080814;46;20520;-67
2023/10/27 00:10:37;;;;;;;5.07;4.63;;;13.10;95.20;;;14.80;68.08;99373.50;3080412;46;20595;-68
2023/10/27 00:13:06;;;;;;;6.13;4.83;;;13.00;95.20;;;14.82;67.87;99365.31;3080876;46;20482;-68
2023/10/27 00:15:34;;;;;;;4.73;4.23;;;13.10;95.10;;;14.82;68.08;99360.84;3080827;46;20427;-65
2023/10/27 00:18:03;;;;;;;5.00;4.50;;;13.10;95.40;;;14.81;67.86;99356.56;3081178;46;20427;-65
2023/10/27 00:20:32;;;;;;;5.53;3.83;;;13.10;95.00;;;14.81;68.03;99355.75;3079772;46;20576;-67
2023/10/27 00:23:00;;;;;;;5.23;4.60;;;13.10;95.00;;;14.81;67.99;99361.84;3080615;46;21001;-68
2023/10/27 00:25:29;;;;;;;5.83;5.23;;;13.10;95.10;;;14.81;68.12;99353.91;3080958;46;20494;-67
2023/10/27 00:27:57;;;;;;;4.73;4.33;;;13.10;95.00;;;14.82;67.91;99354.72;3080506;46;20584;-67
2023/10/27 00:30:25;;;;;;;3.97;3.67;;;13.10;95.00;;;14.80;67.94;99346.22;3080316;46;20447;-67
2023/10/27 00:32:54;;;;;;;7.30;4.77;;;13.10;95.00;;;14.80;67.91;99349.66;3080722;46;21170;-67
2023/10/27 00:35:22;;;;;;;4.80;4.40;;;13.10;95.00;;;14.78;67.66;99348.28;3080472;46;20441;-68
2023/10/27 00:37:51;;;;;;;5.13;4.63;;;13.10;94.90;;;14.77;68.03;99344.84;3080227;46;20431;-67
2023/10/27 00:40:19;;;;;;;6.40;5.10;;;13.00;94.90;;;14.77;68.13;99347.47;3080235;46;20536;-67
2023/10/27 00:42:47;;;;;;;4.87;4.47;;;13.00;94.90;;;14.75;68.20;99352.22;3080775;46;20451;-67
2023/10/27 00:45:16;;;;;;;5.13;4.63;;;13.00;95.00;;;14.76;67.88;99342.44;3080745;46;20455;-67
2023/10/27 00:47:45;;;;;;;4.47;4.07;;;13.00;95.00;;;14.75;67.93;99346.91;3080709;46;20443;-67
2023/10/27 00:50:14;;;;;;;6.07;5.23;;;13.00;95.00;;;14.73;68.01;99351.66;3079191;46;21040;-67
2023/10/27 00:52:42;;;;;;;5.23;4.73;;;13.00;95.10;;;14.73;68.08;99350.84;3080731;46;20438;-67
2023/10/27 00:55:11;;;;;;;4.47;4.07;;;13.00;95.10;;;14.73;68.48;99343.72;3080679;46;20442;-67
2023/10/27 00:57:42;;;;;;;5.60;4.40;;;13.00;95.20;;;14.75;68.39;99343.47;3081041;46;20423;-67
2023/10/27 01:00:12;;;;;;;5.10;4.60;;;13.00;95.20;;;14.76;68.33;99335.25;3081751;46;20462;-67
2023/10/27 01:02:40;;;;;;;5.40;4.90;;;13.00;95.30;;;14.78;68.58;99332.41;3083294;46;20438;-67
2023/10/27 01:05:09;;;;;;;5.13;4.50;;;13.10;95.70;;;14.79;68.34;99328.69;3082699;46;20430;-67
2023/10/27 01:07:38;;;;;;;4.97;4.57;;;13.00;95.30;;;14.80;68.37;99325.03;3083247;46;21045;-67
2023/10/27 01:10:07;;;;;;;5.87;4.70;;;13.10;95.30;;;14.82;68.43;99326.41;3082576;46;20580;-69
2023/10/27 01:12:35;;;;;;;5.17;4.43;;;13.10;95.30;;;14.82;68.51;99323.75;3083116;46;20638;-65
2023/10/27 01:15:05;;;;;;;4.40;4.03;;;13.10;95.20;;;14.83;68.54;99320.03;3083106;46;20710;-65
2023/10/27 01:17:33;;;;;;;4.70;4.23;;;13.10;95.20;;;14.84;68.19;99323.50;3083193;46;21116;-67
2023/10/27 01:20:01;;;;;;;5.17;4.77;;;13.10;95.10;;;14.84;68.23;99320.84;3083732;46;20464;-67
2023/10/27 01:22:32;;;;;;;5.43;4.30;;;13.20;95.10;;;14.83;68.15;99322.69;3084533;46;20490;-67
2023/10/27 01:25:01;;;;;;;4.90;4.43;;;13.10;95.10;;;14.81;68.33;99311.53;3083205;46;20521;-67
2023/10/27 01:27:29;;;;;;;4.40;4.10;;;13.10;95.00;;;14.80;68.34;99309.94;3082194;46;20431;-66
2023/10/27 01:29:57;;;;;;;4.83;4.43;;;13.10;95.10;;;14.79;68.38;99304.84;3082481;46;21170;-68
2023/10/27 01:32:26;;;;;;;5.37;4.87;;;13.10;95.10;;;14.75;67.98;99293.94;3082227;46;20427;-68
2023/10/27 01:34:54;;;;;;;5.30;4.80;;;13.10;95.00;;;14.71;68.22;99295.44;3082597;46;20439;-65
2023/10/27 01:37:23;;;;;;;6.43;5.10;;;13.10;95.00;;;14.66;68.24;99292.72;3082777;46;21005;-67
2023/10/27 01:39:51;;;;;;;5.70;4.70;;;13.00;94.90;;;14.65;68.41;99290.28;3082354;46;20464;-65
2023/10/27 01:42:22;;;;;;;5.70;5.20;;;13.00;95.00;;;14.64;68.74;99294.00;3082545;46;20469;-67
2023/10/27 01:44:52;;;;;;;5.53;5.03;;;13.00;95.20;;;14.61;68.79;99289.97;3082373;46;20462;-67
2023/10/27 01:47:20;;;;;;;4.37;3.87;;;12.90;95.20;;;14.61;68.72;99284.69;3082347;46;20574;-67
2023/10/27 01:49:48;;;;;;;5.30;4.83;;;12.90;95.20;;;14.58;68.42;99279.03;3082278;46;20450;-65
2023/10/27 01:52:18;;;;;;;5.93;3.60;;;12.90;95.20;;;14.58;68.62;99274.56;3082205;46;20423;-67
2023/10/27 01:54:46;;;;;;;5.00;4.50;;;12.90;95.30;;;14.56;68.86;99268.69;3082751;46;21115;-66
2023/10/27 01:57:14;;;;;;;5.47;4.97;;;12.90;95.30;;;14.52;68.58;99264.91;3082584;46;20554;-66
2023/10/27 01:59:43;;;;;;;5.27;4.87;;;12.90;95.30;;;14.48;68.75;99274.34;3082014;46;20453;-67
2023/10/27 02:02:13;;;;;;;6.73;4.67;;;12.90;95.30;;;14.46;68.90;99271.13;3082394;46;20439;-68
2023/10/27 02:04:42;;;;;;;4.90;4.40;;;12.80;95.60;;;14.44;68.98;99272.41;3082641;46;20492;-64
2023/10/27 02:07:12;;;;;;;4.87;4.37;;;12.80;95.40;;;14.42;69.26;99280.59;3082234;46;21014;-66
2023/10/27 02:09:40;;;;;;;4.50;4.10;;;12.80;95.40;;;14.39;69.09;99275.78;3080946;46;20439;-67
2023/10/27 02:12:10;;;;;;;6.23;4.20;;;12.70;95.40;;;14.37;69.28;99280.50;3081807;46;21084;-67
2023/10/27 02:14:39;;;;;;;4.63;4.23;;;12.80;95.50;;;14.35;69.22;99279.94;3082586;46;20462;-66
2023/10/27 02:17:07;;;;;;;5.80;4.33;;;12.70;95.40;;;14.33;69.19;99275.91;3081848;46;21140;-68
2023/10/27 02:19:35;;;;;;;4.50;4.10;;;12.70;95.40;;;14.31;69.08;99284.06;3081993;46;20451;-67
2023/10/27 02:22:04;;;;;;;4.30;3.97;;;12.70;95.50;;;14.30;69.45;99282.47;3082123;46;20475;-67
2023/10/27 02:24:32;;;;;;;4.30;3.87;;;12.60;95.60;;;14.30;69.56;99284.28;3082385;46;20428;-67
2023/10/27 02:27:00;;;;;;;4.63;4.23;;;12.60;95.60;;;14.30;69.13;99277.19;3081612;46;20427;-67
2023/10/27 02:29:29;;;;;;;4.27;3.93;;;12.60;95.60;;;14.30;69.54;99290.41;3081770;46;20587;-68
2023/10/27 02:31:57;;;;;;;4.10;3.70;;;12.60;95.70;;;14.31;69.27;99284.06;3082206;46;21028;-67
2023/10/27 02:34:25;;;;;;;3.40;3.20;;;12.60;95.70;;;14.30;69.53;99287.75;3082014;46;20431;-68
2023/10/27 02:36:54;;;;;;;4.00;3.60;;;12.60;95.70;;;14.29;69.35;99280.81;3082106;46;21129;-67
2023/10/27 02:39:23;;;;;;;3.90;3.57;;;12.60;95.70;;;14.30;69.63;99285.13;3081883;46;21002;-66
2023/10/27 02:41:51;;;;;;;4.23;3.70;;;12.60;95.80;;;14.29;69.38;99280.81;3081867;46;20491;-67
2023/10/27 02:44:19;;;;;;;3.70;3.40;;;12.60;95.70;;;14.25;69.62;99285.78;3081582;46;20472;-66
2023/10/27 02:46:48;;;;;;;4.00;3.70;;;12.60;95.70;;;14.24;69.65;99280.72;3081916;46;21085;-68
2023/10/27 02:49:16;;;;;;;3.90;3.50;;;12.60;95.70;;;14.23;69.31;99284.41;3080698;46;20428;-67
2023/10/27 02:51:44;;;;;;;3.80;3.37;;;12.60;95.70;;;14.23;69.75;99276.47;3081822;46;20427;-68
2023/10/27 02:54:13;;;;;;;3.53;3.23;;;12.50;95.80;;;14.23;69.85;99279.13;3082127;46;20475;-67
2023/10/27 02:56:41;;;;;;;3.77;2.97;;;12.50;95.80;;;14.22;69.95;99277.50;3081774;46;20428;-67
2023/10/27 02:59:09;;;;;;;5.60;2.90;;;12.50;95.80;;;14.21;69.61;99274.03;3081616;46;20427;-66
2023/10/27 03:01:38;;;;;;;4.17;3.13;;;12.60;95.80;;;14.22;70.07;99267.72;3081861;46;20565;-68
2023/10/27 03:04:06;;;;;;;3.63;3.07;;;12.50;95.90;;;14.25;69.52;99271.75;3081570;46;21128;-68
2023/10/27 03:06:36;;;;;;;3.20;3.00;;;12.50;96.00;;;14.26;69.75;99268.84;3081792;46;21073;-68
2023/10/27 03:09:04;;;;;;;4.07;3.37;;;12.50;96.00;;;14.29;69.66;99270.22;3081304;46;20655;-67
2023/10/27 03:11:33;;;;;;;3.73;2.80;;;12.60;96.00;;;14.31;69.55;99262.88;3081528;46;21187;-67
2023/10/27 03:14:01;;;;;;;3.30;3.00;;;12.60;95.90;;;14.33;70.00;99265.31;3081453;46;20471;-66
2023/10/27 03:16:30;;;;;;;3.10;2.80;;;12.50;95.90;;;14.33;70.02;99260.84;3081705;46;20921;-66
2023/10/27 03:18:58;;;;;;;2.83;2.63;;;12.60;96.00;;;14.35;69.92;99266.69;3081379;46;20503;-67
2023/10/27 03:21:26;;;;;;;4.80;2.70;;;12.60;96.00;;;14.36;69.78;99265.63;3081275;46;20432;-66
2023/10/27 03:23:55;;;;;;;4.50;2.73;;;12.60;95.90;;;14.34;69.67;99273.03;3081024;46;20472;-67
2023/10/27 03:26:23;;;;;;;2.57;2.37;;;12.60;95.90;;;14.35;69.75;99264.06;3080254;46;20469;-65
2023/10/27 03:28:53;;;;;;;2.67;2.47;;;12.60;95.90;;;14.35;69.54;99269.34;3080913;46;20435;-68
2023/10/27 03:31:21;;;;;;;4.03;3.20;;;12.60;96.00;;;14.36;70.14;99254.28;3080774;46;20577;-67
2023/10/27 03:33:51;;;;;;;4.83;2.70;;;12.60;96.00;;;14.39;69.64;99254.59;3080853;46;20427;-67
2023/10/27 03:36:21;;;;;;;2.60;2.40;;;12.60;96.00;;;14.39;69.44;99259.88;3081795;46;20419;-68
2023/10/27 03:38:49;;;;;;;4.30;2.20;;;12.60;95.80;;;14.37;69.36;99261.97;3081085;46;20454;-66
2023/10/27 03:41:18;;;;;;;4.23;2.20;;;12.60;95.80;;;14.35;69.34;99266.69;3080920;46;20440;-67
2023/10/27 03:43:47;;;;;;;2.40;2.00;;;12.60;95.70;;;14.33;69.48;99266.13;3081007;46;20542;-67
2023/10/27 03:46:15;;;;;;;2.80;1.97;;;12.60;95.70;;;14.31;69.52;99268.19;3081401;46;20538;-67
2023/10/27 03:48:44;;;;;;;2.57;2.37;;;12.60;95.70;;;14.30;69.63;99266.59;3081039;46;20428;-68
2023/10/27 03:51:12;;;;;;;2.60;2.40;;;12.60;95.90;;;14.29;69.79;99275.53;3080817;46;20439;-68
2023/10/27 03:53:41;;;;;;;3.33;2.30;;;12.60;95.90;;;14.27;69.35;99274.97;3081047;46;20440;-66
2023/10/27 03:56:10;;;;;;;2.53;2.30;;;12.60;95.80;;;14.25;69.45;99275.22;3081469;46;20482;-67
2023/10/27 03:58:38;;;;;;;2.37;2.17;;;12.60;95.80;;;14.23;69.85;99277.28;3081243;46;20577;-67
2023/10/27 04:01:15;;;;;;;2.57;2.37;;;12.60;95.90;;;14.25;69.77;99275.22;3080940;46;21023;-67
2023/10/27 04:03:43;;;;;;;2.10;2.00;;;12.50;96.00;;;14.26;69.92;99284.75;3081163;46;20948;-67
2023/10/27 04:06:12;;;;;;;3.60;2.40;;;12.60;96.10;;;14.27;69.88;99282.91;3081292;46;21089;-67
2023/10/27 04:08:40;;;;;;;2.47;2.13;;;12.50;96.00;;;14.27;69.95;99272.31;3080678;46;20525;-67
2023/10/27 04:11:08;;;;;;;3.00;2.37;;;12.50;96.00;;;14.27;69.70;99277.63;3080721;46;20439;-68
2023/10/27 04:13:37;;;;;;;3.07;2.07;;;12.60;96.00;;;14.24;69.89;99276.22;3080785;46;20458;-68
2023/10/27 04:16:05;;;;;;;2.33;2.13;;;12.60;95.90;;;14.23;69.85;99281.78;3081020;46;20431;-68
2023/10/27 04:18:34;;;;;;;1.87;1.70;;;12.60;95.90;;;14.22;69.80;99277.50;3080960;46;20552;-67
2023/10/27 04:21:03;;;;;;;2.47;2.07;;;12.50;95.90;;;14.20;69.65;99272.47;3081159;46;20476;-67
2023/10/27 04:23:31;;;;;;;2.27;2.00;;;12.50;95.90;;;14.19;69.74;99275.34;3081006;46;21010;-67
2023/10/27 04:26:00;;;;;;;2.63;1.77;;;12.50;95.80;;;14.18;69.79;99285.13;3080197;46;20427;-67
2023/10/27 04:28:28;;;;;;;5.40;1.97;;;12.50;95.90;;;14.16;69.58;99281.09;3080588;46;20980;-66
2023/10/27 04:30:57;;;;;;;2.17;1.97;;;12.50;95.80;;;14.15;69.92;99284.78;3080650;46;21032;-67
2023/10/27 04:33:25;;;;;;;4.67;2.00;;;12.50;96.00;;;14.14;70.15;99276.03;3080907;46;20427;-66
2023/10/27 04:35:54;;;;;;;2.77;2.07;;;12.50;96.10;;;14.15;69.87;99271.53;3083209;46;20430;-67
2023/10/27 04:38:22;;;;;;;2.70;1.87;;;12.50;96.10;;;14.15;70.03;99263.59;3082993;46;20426;-67
2023/10/27 04:40:52;;;;;;;4.40;2.20;;;12.50;96.10;;;14.12;70.26;99269.38;3082847;46;20548;-67
2023/10/27 04:43:21;;;;;;;2.57;2.00;;;12.50;96.10;;;14.13;70.32;99265.69;3083578;46;20574;-67
2023/10/27 04:45:50;;;;;;;1.97;1.87;;;12.50;96.10;;;14.12;69.94;99264.88;3083397;46;20427;-67
2023/10/27 04:48:18;;;;;;;1.90;1.80;;;12.40;96.00;;;14.15;70.35;99258.31;3083025;46;20469;-69
2023/10/27 04:50:53;;;;;;;2.73;1.97;;;12.40;96.20;;;14.16;70.69;99266.03;3082627;46;21041;-67
2023/10/27 04:53:22;;;;;;;2.17;1.93;;;12.50;96.40;;;14.21;70.65;99262.69;3083096;46;21061;-68
2023/10/27 04:55:50;;;;;;;3.17;1.97;;;12.50;96.40;;;14.24;70.35;99262.19;3083336;46;20497;-67
2023/10/27 04:58:20;;;;;;;5.57;3.97;;;12.50;96.40;;;14.26;70.20;99260.13;3082807;46;20521;-68
2023/10/27 05:00:49;;;;;;;1.97;1.80;;;12.50;96.30;;;14.26;70.11;99252.19;3082502;46;21068;-67
2023/10/27 05:03:17;;;;;;;2.13;1.90;;;12.50;96.20;;;14.25;70.45;99258.53;3083192;46;20468;-67
2023/10/27 05:05:46;;;;;;;2.63;1.77;;;12.50;96.20;;;14.26;70.27;99260.13;3082838;46;20496;-67
2023/10/27 05:08:14;;;;;;;2.83;1.80;;;12.60;96.30;;;14.28;69.99;99250.13;3083187;46;20427;-67
2023/10/27 05:10:43;;;;;;;2.77;2.10;;;12.60;96.30;;;14.24;70.10;99256.91;3082557;46;20508;-67
2023/10/27 05:13:11;;;;;;;2.27;1.80;;;12.60;96.10;;;14.24;70.36;99256.91;3082762;46;20576;-68
2023/10/27 05:15:39;;;;;;;3.53;2.13;;;12.60;96.10;;;14.22;70.15;99254.50;3082563;46;20572;-68
2023/10/27 05:18:08;;;;;;;2.33;2.00;;;12.50;96.00;;;14.23;70.24;99250.81;3082980;46;20424;-68
2023/10/27 05:20:37;;;;;;;1.73;1.57;;;12.50;96.10;;;14.24;70.40;99252.41;3082151;46;20467;-69
2023/10/27 05:23:06;;;;;;;3.20;2.10;;;12.50;96.20;;;14.23;70.48;99248.19;3082753;46;20486;-67
2023/10/27 05:25:35;;;;;;;2.33;2.00;;;12.50;96.20;;;14.21;70.51;99247.59;3082737;46;20549;-66
2023/10/27 05:28:04;;;;;;;3.00;2.13;;;12.50;96.20;;;14.22;70.65;99238.63;3082819;46;20479;-67
2023/10/27 05:30:36;;;;;;;2.23;2.03;;;12.50;96.30;;;14.24;70.51;99243.66;3082037;46;20455;-66
2023/10/27 05:33:04;;;;;;;3.73;2.27;;;12.50;96.20;;;14.25;70.66;99238.16;3082476;46;20436;-67
2023/10/27 05:35:32;;;;;;;2.17;1.93;;;12.50;96.30;;;14.26;70.49;99237.09;3082666;46;20447;-65
2023/10/27 05:38:01;;;;;;;2.50;2.30;;;12.60;96.30;;;14.27;70.15;99235.25;3082530;46;21037;-67
2023/10/27 05:40:31;;;;;;;3.00;2.30;;;12.60;96.30;;;14.27;70.24;99232.63;3081816;46;20467;-66
2023/10/27 05:43:01;;;;;;;5.10;2.10;;;12.60;96.20;;;14.25;70.48;99237.34;3082587;46;20428;-66
2023/10/27 05:45:30;;;;;;;3.97;3.00;;;12.60;96.60;;;14.23;70.06;99236.78;3082419;46;20549;-67
2023/10/27 05:47:58;;;;;;;4.43;2.70;;;12.60;96.20;;;14.19;70.06;99233.00;3082659;46;20561;-68
2023/10/27 05:50:27;;;;;;;4.63;2.63;;;12.60;96.20;;;14.19;70.52;99239.09;3081763;46;21129;-67
2023/10/27 05:52:55;;;;;;;3.30;2.70;;;12.50;96.20;;;14.19;70.34;99235.66;3082282;46;20451;-67
2023/10/27 05:55:25;;;;;;;3.47;2.47;;;12.50;96.20;;;14.18;70.45;99226.91;3082347;46;20709;-66
2023/10/27 05:57:54;;;;;;;2.90;2.70;;;12.50;96.20;;;14.16;70.68;99229.00;3082269;46;21147;-67
2023/10/27 06:00:25;;;;;;;3.40;3.10;;;12.50;96.20;;;14.17;70.62;99235.06;3080534;46;20578;-68
2023/10/27 06:02:56;;;;;;;4.90;3.23;;;12.50;96.20;;;14.16;70.69;99238.75;3080784;46;21022;-67
2023/10/27 06:05:24;;;;;;;3.47;3.00;;;12.50;96.20;;;14.15;70.70;99237.13;3082368;46;20581;-67
2023/10/27 06:07:53;;;;;;;3.87;3.20;;;12.50;96.30;;;14.14;70.62;99233.69;3082880;46;21110;-67
2023/10/27 06:10:21;;;;;;;4.43;2.83;;;12.50;96.30;;;14.14;70.58;99240.84;3081455;46;20576;-65
2023/10/27 06:12:50;;;;;;;7.57;5.93;;;12.50;96.30;;;14.14;70.42;99240.84;3082255;46;20455;-64
2023/10/27 06:15:18;;;;;;;6.90;4.10;;;12.50;96.40;;;14.13;70.62;99244.50;3082127;46;20482;-67
2023/10/27 06:17:49;;;;;;;4.17;3.73;;;12.50;96.30;;;14.11;70.43;99239.47;3082099;46;20553;-67
2023/10/27 06:20:17;;;;;;;5.47;3.53;;;12.50;96.30;;;14.09;70.62;99240.72;3081520;46;20439;-67
2023/10/27 06:22:46;;;;;;;5.53;3.80;;;12.50;96.30;;;14.09;70.79;99246.03;3082100;46;20432;-67
2023/10/27 06:25:14;;;;;;;4.87;3.90;;;12.40;96.30;;;14.07;70.54;99245.47;3082057;46;20544;-66
2023/10/27 06:27:43;;;;;;;6.47;4.67;;;12.50;96.30;;;14.03;70.82;99244.28;3081559;46;20428;-67
2023/10/27 06:30:11;;;;;;;6.13;4.23;;;12.40;96.30;;;14.00;71.00;99250.06;3081245;46;20664;-68
2023/10/27 06:32:40;;;;;;;6.70;4.00;;;12.40;96.30;;;13.96;70.68;99246.28;3081844;46;20541;-67
2023/10/27 06:35:08;;;;;;;6.27;4.23;;;12.40;96.30;;;13.94;70.80;99246.50;3081310;46;20436;-68
2023/10/27 06:37:37;;;;;;;5.90;4.00;;;12.40;96.40;;;13.97;71.44;99246.06;3082111;46;20485;-68
2023/10/27 06:40:06;;;;;;;5.53;4.20;;;12.40;96.70;;;14.04;71.28;99245.91;3081178;46;20478;-67
2023/10/27 06:42:35;;;;;;;5.63;4.23;;;12.40;96.80;;;14.06;71.29;99252.59;3082324;46;20982;-65
2023/10/27 06:45:04;;;;;;;4.57;3.80;;;12.40;96.80;;;14.09;71.18;99256.59;3082049;46;21024;-66
2023/10/27 06:47:32;;;;;;;43.03;26.67;;;12.40;96.70;;;14.09;70.92;99257.41;3081744;46;20452;-67
2023/10/27 06:50:03;;;;;;;24.97;20.97;;;12.40;96.70;;;14.13;71.28;99257.75;3081152;46;20481;-65
2023/10/27 06:52:34;;;;;;;46.30;37.20;;;12.40;96.70;;;14.15;71.05;99253.00;3081650;46;20608;-67
2023/10/27 06:55:03;;;;;;;8.57;7.03;;;12.50;96.80;;;14.16;71.14;99258.09;3081585;46;21147;-67
2023/10/27 06:57:32;;;;;;;7.83;5.47;;;12.50;96.70;;;14.17;70.65;99254.41;3081121;46;20431;-67
2023/10/27 07:00:01;;;;;;;5.70;5.03;;;12.50;96.60;;;14.16;70.80;99263.38;3080328;46;20556;-68
2023/10/27 07:02:30;;;;;;;8.43;5.20;;;12.50;96.50;;;14.17;70.77;99266.81;3081940;46;20441;-67
2023/10/27 07:05:17;;;;;;;6.00;5.17;;;12.50;96.60;;;14.18;71.19;99261.31;3081539;46;20444;-67
2023/10/27 07:07:45;;;;;;;11.43;7.53;;;12.50;96.60;;;14.18;71.16;99258.66;3081639;46;20440;-66
2023/10/27 07:10:15;;;;;;;10.53;7.83;;;12.50;96.60;;;14.19;70.77;99262.13;3081092;46;21028;-66
2023/10/27 07:12:44;;;;;;;9.47;6.67;;;12.50;96.90;;;14.17;70.62;99267.63;3081648;46;20452;-68
2023/10/27 07:15:13;;;;;;;10.23;7.20;;;12.50;96.50;;;14.16;70.82;99265.22;3081624;46;20442;-67
2023/10/27 07:17:42;;;;;;;6.80;5.70;;;12.50;96.50;;;14.17;70.96;99262.34;3081564;46;20448;-68
2023/10/27 07:20:11;;;;;;;9.03;7.00;;;12.50;96.50;;;14.18;70.79;99265.78;3080976;46;20460;-68
2023/10/27 07:22:39;;;;;;;7.20;5.60;;;12.50;96.40;;;14.20;70.76;99266.34;3081515;46;20598;-67
2023/10/27 07:25:08;;;;;;;10.60;7.30;;;12.50;96.50;;;14.19;70.95;99265.53;3081595;46;20431;-68
2023/10/27 07:27:37;;;;;;;8.67;6.80;;;12.50;96.50;;;14.17;71.09;99264.97;3080709;46;20501;-67
2023/10/27 07:30:06;;;;;;;11.03;8.47;;;12.50;96.40;;;14.17;70.71;99261.53;3080785;46;20563;-67
2023/10/27 07:32:35;;;;;;;9.73;8.03;;;12.50;96.40;;;14.15;70.75;99264.41;3082472;43;20456;-67
2023/10/27 07:35:04;;;;;;;12.60;8.80;;;12.50;96.40;;;14.15;70.46;99258.31;3081251;46;20443;-67
2023/10/27 07:37:32;;;;;;;11.40;8.33;;;12.50;96.40;;;14.15;70.58;99263.59;3081355;46;21097;-68
2023/10/27 07:40:01;;;;;;;9.67;8.07;;;12.50;96.40;;;14.16;70.85;99265.22;3080917;46;20447;-66
2023/10/27 07:42:31;;;;;;;14.03;10.50;;;12.50;96.40;;;14.15;70.27;99259.13;3081348;46;21095;-67
2023/10/27 07:44:59;;;;;;;17.70;10.30;;;12.50;96.40;;;14.15;70.81;99258.31;3081235;46;20438;-67
2023/10/27 07:47:28;;;;;;;13.30;9.40;;;12.50;96.40;;;14.15;70.48;99255.66;3081568;46;20977;-69
2023/10/27 07:49:56;;;;;;;20.63;14.03;;;12.50;96.40;;;14.17;70.85;99262.34;3080828;46;20439;-67
2023/10/27 07:52:25;;;;;;;30.23;19.27;;;12.50;96.50;;;14.20;70.88;99261.06;3080928;46;20561;-66
2023/10/27 07:54:54;;;;;;;16.00;11.77;;;12.50;96.50;;;14.22;70.59;99257.16;3080957;46;20436;-67
2023/10/27 07:57:22;;;;;;;13.40;10.73;;;12.50;96.50;;;14.20;70.38;99263.72;3081997;46;20439;-65
2023/10/27 07:59:51;;;;;;;13.80;10.87;;;12.50;96.30;;;14.20;70.51;99261.88;3080656;46;20496;-67
2023/10/27 08:02:19;;;;;;;11.10;9.80;;;12.50;96.40;;;14.23;70.55;99263.25;3080897;46;20458;-67
2023/10/27 08:04:47;;;;;;;16.53;11.27;;;12.50;96.50;;;14.24;70.23;99263.00;3081254;46;20988;-66
2023/10/27 08:07:16;;;;;;;14.37;11.80;;;12.50;96.40;;;14.23;70.58;99266.72;3080699;46;20435;-67
2023/10/27 08:09:44;;;;;;;12.80;10.67;;;12.50;96.30;;;14.24;70.52;99264.84;3079780;46;20548;-67
2023/10/27 08:12:13;;;;;;;15.23;11.93;;;12.50;96.20;;;14.25;70.25;99269.09;3081058;46;20438;-67
2023/10/27 08:14:41;;;;;;;18.10;11.67;;;12.50;96.20;;;14.26;70.11;99270.72;3081313;46;20458;-68
2023/10/27 08:17:10;;;;;;;19.63;12.37;;;12.50;96.20;;;14.27;70.15;99272.31;3080073;46;20461;-68
2023/10/27 08:19:39;;;;;;;13.50;10.53;;;12.50;96.30;;;14.30;70.12;99282.47;3080388;46;20444;-67
2023/10/27 08:22:08;;;;;;;11.77;9.57;;;12.50;96.30;;;14.33;70.40;99276.72;3080937;46;20443;-69
2023/10/27 08:24:36;;;;;;;13.60;10.67;;;12.60;96.40;;;14.37;70.68;99275.19;3081373;46;20985;-66
2023/10/27 08:27:05;;;;;;;17.10;11.50;;;12.60;96.50;;;14.42;70.31;99275.31;3079359;46;20623;-67
2023/10/27 08:29:33;;;;;;;12.90;10.43;;;12.60;96.40;;;14.43;70.18;99282.19;3080123;46;20439;-66
2023/10/27 08:32:01;;;;;;;12.57;10.33;;;12.60;96.30;;;14.44;70.29;99273.22;3080648;46;20454;-68
2023/10/27 08:34:30;;;;;;;25.80;20.27;;;12.70;96.30;;;14.46;69.89;99287.03;3080105;46;20541;-67
2023/10/27 08:36:58;;;;;;;18.87;14.00;;;12.70;96.30;;;14.49;69.92;99280.47;3080640;46;21117;-68
2023/10/27 08:39:27;;;;;;;14.67;10.93;;;12.70;96.10;;;14.49;69.90;99283.91;3079193;46;20549;-67
2023/10/27 08:41:56;;;;;;;14.03;10.37;;;12.70;96.10;;;14.51;69.89;99284.47;3080637;46;21255;-66
2023/10/27 08:44:27;;;;;;;14.73;11.13;;;12.70;96.00;;;14.51;69.50;99295.06;3080834;46;20432;-67
2023/10/27 08:46:57;;;;;;;12.00;10.00;;;12.70;96.00;;;14.52;69.51;99286.09;3080823;46;20549;-67
2023/10/27 08:49:25;;;;;;;16.27;11.40;;;12.70;95.90;;;14.53;69.24;99281.59;3080352;46;20535;-67
2023/10/27 08:51:57;;;;;;;17.30;11.17;;;12.70;95.80;;;14.52;69.21;99294.03;3079965;46;20439;-67
2023/10/27 08:54:25;;;;;;;14.33;9.97;;;12.70;95.80;;;14.51;69.09;99292.41;3079717;46;20440;-67
2023/10/27 08:56:54;;;;;;;14.43;10.17;;;12.70;95.80;;;14.51;69.37;99289.78;3080484;46;20490;-67
2023/10/27 08:59:23;;;;;;;12.73;10.67;;;12.70;95.80;;;14.52;69.30;99294.03;3078889;46;20575;-66
2023/10/27 09:01:54;;;;;;;13.73;10.83;;;12.80;95.80;;;14.53;69.11;99302.75;3079867;46;20474;-67
2023/10/27 09:04:24;;;;;;;14.63;11.43;;;12.80;95.90;;;14.50;69.23;99296.09;3080422;46;20430;-67
2023/10/27 09:06:52;;;;;;;12.83;9.60;;;12.80;95.80;;;14.47;68.83;99298.44;3080560;46;20456;-67
2023/10/27 09:09:21;;;;;;;11.03;8.80;;;12.80;95.60;;;14.43;68.89;99303.38;3079863;46;20587;-67
2023/10/27 09:11:51;;;;;;;13.70;9.57;;;12.80;95.60;;;14.41;69.19;99297.50;3080404;46;20537;-67
2023/10/27 09:14:30;;;;;;;11.63;8.83;;;12.70;95.60;;;14.40;69.12;99298.56;3080439;46;20950;-67
2023/10/27 09:17:11;;;;;;;10.77;8.37;;;12.70;95.60;;;14.40;69.49;99303.06;3080345;46;20545;-66
2023/10/27 09:19:40;;;;;;;13.13;9.40;;;12.70;95.70;;;14.44;69.17;99294.41;3080883;46;20443;-67
2023/10/27 09:22:19;;;;;;;12.33;8.87;;;12.70;95.80;;;14.50;69.26;99303.25;3082724;46;20470;-68
2023/10/27 09:25:17;;;;;;;21.20;15.17;;;12.70;95.80;;;14.51;69.36;99304.84;3082808;46;20648;-66
2023/10/27 09:27:45;;;;;;;12.27;8.73;;;12.80;95.90;;;14.54;68.74;99301.75;3082096;46;21089;-67
2023/10/27 09:30:30;;;;;;;11.53;8.37;;;12.80;95.70;;;14.51;69.15;99310.97;3081800;46;20564;-66
2023/10/27 09:33:20;;;;;;;9.97;8.00;;;12.80;95.60;;;14.50;69.04;99313.84;3082795;46;20552;-67
2023/10/27 09:35:53;;;;;;;9.73;7.53;;;12.80;95.60;;;14.53;68.83;99308.88;3081478;46;20465;-66
2023/10/27 09:38:22;;;;;;;10.80;8.37;;;12.80;95.60;;;14.53;68.75;99303.56;3082402;46;20509;-68
2023/10/27 09:40:52;;;;;;;10.70;8.37;;;12.80;95.50;;;14.54;68.75;99304.38;3081988;46;20485;-66
2023/10/27 09:43:25;;;;;;;9.33;7.87;;;12.80;95.50;;;14.54;68.90;99307.03;3082465;46;20573;-67
2023/10/27 09:45:59;;;;;;;11.23;8.57;;;12.80;95.60;;;14.55;68.99;99312.09;3082310;46;20431;-67
2023/10/27 09:48:30;;;;;;;10.17;9.13;;;12.80;95.60;;;14.57;68.72;99317.94;3082014;46;20456;-67
2023/10/27 09:51:16;;;;;;;23.83;17.47;;;12.80;95.50;;;14.54;68.70;99309.69;3082244;46;21074;-67
2023/10/27 09:53:47;;;;;;;12.97;10.67;;;12.80;95.40;;;14.55;68.54;99305.97;3082514;46;20459;-67
2023/10/27 09:56:17;;;;;;;14.00;11.53;;;12.90;95.40;;;14.54;68.67;99307.84;3082196;46;21114;-66
2023/10/27 09:58:46;;;;;;;28.13;23.80;;;12.80;95.40;;;14.55;68.57;99308.63;3082242;46;20518;-68
2023/10/27 10:01:16;;;;;;;18.67;14.07;;;12.80;95.40;;;14.57;68.61;99309.22;3081961;46;20592;-67
2023/10/27 10:03:44;;;;;;;10.63;8.67;;;12.80;95.50;;;14.56;68.71;99308.41;3082295;46;20943;-68
2023/10/27 10:06:23;;;;;;;22.17;16.80;;;12.90;95.50;;;14.53;68.83;99306.22;3082309;46;20439;-67
2023/10/27 10:09:14;;;;;;;11.23;8.63;;;12.90;95.50;;;14.54;68.75;99315.78;3082005;46;20431;-67
2023/10/27 10:11:48;;;;;;;12.57;8.60;;;12.90;95.50;;;14.55;68.96;99317.38;3082319;46;21015;-65
2023/10/27 10:14:40;;;;;;;9.87;7.87;;;12.90;95.50;;;14.55;68.90;99308.63;3082235;46;20549;-67
2023/10/27 10:17:09;;;;;;;10.43;8.73;;;12.90;95.50;;;14.58;68.54;99310.81;3081910;46;20436;-68
2023/10/27 10:19:51;;;;;;;9.80;8.80;;;12.90;95.50;;;14.57;68.91;99312.66;3081481;46;20460;-68
2023/10/27 10:22:44;;;;;;;10.80;8.53;;;12.90;95.50;;;14.60;69.01;99314.84;3081659;46;20439;-67
2023/10/27 10:25:18;;;;;;;15.63;12.17;;;12.90;95.80;;;14.68;69.14;99301.22;3082091;46;20439;-68